createdAt,value
2019-04-06T00:01:34.629Z,20.93
2019-04-06T00:04:02.198Z,21.80
2019-04-06T00:06:29.588Z,19.17
2019-04-06T00:08:56.973Z,23.17
2019-04-06T00:11:24.368Z,22.63
2019-04-06T00:13:52.715Z,22.77
2019-04-06T00:16:20.464Z,19.57
2019-04-06T00:18:47.883Z,19.93
2019-04-06T00:21:15.368Z,22.27
2019-04-06T00:23:42.795Z,20.27
2019-04-06T00:26:10.364Z,17.97
2019-04-06T00:28:37.935Z,21.97
2019-04-06T00:31:22.718Z,19.67
2019-04-06T00:33:50.420Z,19.60
2019-04-06T00:36:22.545Z,17.57
2019-04-06T00:38:49.896Z,17.67
2019-04-06T00:41:17.567Z,21.23
2019-04-06T00:43:45.134Z,18.17
2019-04-06T00:46:12.577Z,20.80
2019-04-06T00:48:39.966Z,17.30
2019-04-06T00:51:07.513Z,18.57
2019-04-06T00:53:35.256Z,16.50
2019-04-06T00:56:02.702Z,16.60
2019-04-06T00:58:30.156Z,19.80
2019-04-06T01:00:57.606Z,16.87
2019-04-06T01:03:25.059Z,19.13
2019-04-06T01:05:52.618Z,19.13
2019-04-06T01:08:20.180Z,18.33
2019-04-06T01:10:47.712Z,18.37
2019-04-06T01:13:15.245Z,19.70
2019-04-06T01:15:42.654Z,19.73
2019-04-06T01:18:10.106Z,20.90
2019-04-06T01:20:37.661Z,23.97
2019-04-06T01:23:05.107Z,24.43
2019-04-06T01:25:32.679Z,23.70
2019-04-06T01:28:00.228Z,21.00
2019-04-06T01:30:27.659Z,21.83
2019-04-06T01:32:55.254Z,19.43
2019-04-06T01:35:22.606Z,20.13
2019-04-06T01:37:50.020Z,19.90
2019-04-06T01:40:17.606Z,20.47
2019-04-06T01:42:44.894Z,17.30
2019-04-06T01:45:12.326Z,19.17
2019-04-06T01:47:39.726Z,20.57
2019-04-06T01:50:07.249Z,18.77
2019-04-06T01:52:34.598Z,17.03
2019-04-06T01:55:02.092Z,20.83
2019-04-06T01:57:29.848Z,21.83
2019-04-06T01:59:57.305Z,17.70
2019-04-06T02:02:27.961Z,20.20
2019-04-06T02:04:55.366Z,22.47
2019-04-06T02:07:23.034Z,18.83
2019-04-06T02:09:50.802Z,18.37
2019-04-06T02:12:18.211Z,19.40
2019-04-06T02:14:45.718Z,20.67
2019-04-06T02:17:13.152Z,20.23
2019-04-06T02:19:40.606Z,19.47
2019-04-06T02:22:08.119Z,20.20
2019-04-06T02:24:35.561Z,20.83
2019-04-06T02:27:02.874Z,21.20
2019-04-06T02:29:30.657Z,19.80
2019-04-06T02:32:06.731Z,18.43
2019-04-06T02:34:51.822Z,19.27
2019-04-06T02:37:38.474Z,18.47
2019-04-06T02:40:24.114Z,19.73
2019-04-06T02:42:56.285Z,18.03
2019-04-06T02:45:23.757Z,22.23
2019-04-06T02:47:51.237Z,17.73
2019-04-06T02:50:19.129Z,19.73
2019-04-06T02:52:46.696Z,16.40
2019-04-06T02:55:14.303Z,20.77
2019-04-06T02:57:41.732Z,20.37
2019-04-06T03:00:09.636Z,19.33
2019-04-06T03:02:37.308Z,21.60
2019-04-06T03:05:05.063Z,17.37
2019-04-06T03:07:32.420Z,19.33
2019-04-06T03:09:59.877Z,20.20
2019-04-06T03:12:27.457Z,16.97
2019-04-06T03:14:54.813Z,19.33
2019-04-06T03:17:22.265Z,19.23
2019-04-06T03:19:49.669Z,19.23
2019-04-06T03:22:16.977Z,18.70
2019-04-06T03:24:44.507Z,22.43
2019-04-06T03:27:12.113Z,17.43
2019-04-06T03:29:39.626Z,20.20
2019-04-06T03:32:07.202Z,18.87
2019-04-06T03:34:34.577Z,19.93
2019-04-06T03:37:02.012Z,20.77
2019-04-06T03:39:29.388Z,23.53
2019-04-06T03:41:57.050Z,23.03
2019-04-06T03:44:24.457Z,23.73
2019-04-06T03:46:51.885Z,24.40
2019-04-06T03:49:19.357Z,23.17
2019-04-06T03:51:46.771Z,21.00
2019-04-06T03:54:14.322Z,24.67
2019-04-06T03:56:41.731Z,19.80
2019-04-06T03:59:09.163Z,23.23
2019-04-06T04:01:36.608Z,22.67
2019-04-06T04:04:04.051Z,25.40
2019-04-06T04:06:31.361Z,25.27
2019-04-06T04:08:58.771Z,23.23
2019-04-06T04:11:26.168Z,24.40
2019-04-06T04:13:53.612Z,23.67
2019-04-06T04:16:21.001Z,18.90
2019-04-06T04:18:48.421Z,20.60
2019-04-06T04:21:15.992Z,22.93
2019-04-06T04:23:43.438Z,24.10
2019-04-06T04:26:11.233Z,19.23
2019-04-06T04:28:38.972Z,23.13
2019-04-06T04:31:06.442Z,22.33
2019-04-06T04:33:33.973Z,24.23
2019-04-06T04:36:01.423Z,25.33
2019-04-06T04:38:28.690Z,27.73
2019-04-06T04:40:56.166Z,21.87
2019-04-06T04:43:23.697Z,27.23
2019-04-06T04:45:51.074Z,26.67
2019-04-06T04:48:18.538Z,26.87
2019-04-06T04:50:45.781Z,24.60
2019-04-06T04:53:13.254Z,26.53
2019-04-06T04:55:40.741Z,31.33
2019-04-06T04:58:08.168Z,28.40
2019-04-06T05:00:35.592Z,30.37
2019-04-06T05:03:02.956Z,32.70
2019-04-06T05:05:30.322Z,33.57
2019-04-06T05:07:57.786Z,29.47
2019-04-06T05:10:25.124Z,29.47
2019-04-06T05:12:52.483Z,32.30
2019-04-06T05:15:29.474Z,29.10
2019-04-06T05:17:56.736Z,30.33
2019-04-06T05:20:24.194Z,30.00
2019-04-06T05:22:51.478Z,32.50
2019-04-06T05:25:18.852Z,23.37
2019-04-06T05:27:51.820Z,26.90
2019-04-06T05:30:16.032Z,23.93
2019-04-06T05:32:43.585Z,29.67
2019-04-06T05:35:11.161Z,27.33
2019-04-06T05:37:38.981Z,26.30
2019-04-06T05:40:06.576Z,25.37
2019-04-06T05:42:33.823Z,26.10
2019-04-06T05:45:01.232Z,29.53
2019-04-06T05:47:28.634Z,27.93
2019-04-06T05:49:56.250Z,31.10
2019-04-06T05:52:23.840Z,31.10
2019-04-06T05:54:51.308Z,34.27
2019-04-06T05:57:18.734Z,38.70
2019-04-06T05:59:46.041Z,33.47
2019-04-06T06:02:13.500Z,30.57
2019-04-06T06:04:41.170Z,30.53
2019-04-06T06:07:09.068Z,31.30
2019-04-06T06:09:37.498Z,35.13
2019-04-06T06:12:04.919Z,31.80
2019-04-06T06:14:32.172Z,32.17
2019-04-06T06:16:59.529Z,33.53
2019-04-06T06:19:26.929Z,28.43
2019-04-06T06:21:54.217Z,30.17
2019-04-06T06:24:21.643Z,33.53
2019-04-06T06:26:49.175Z,32.47
2019-04-06T06:29:16.866Z,30.27
2019-04-06T06:31:45.864Z,39.53
2019-04-06T06:34:13.315Z,38.77
2019-04-06T06:36:40.750Z,33.03
2019-04-06T06:39:08.656Z,33.47
2019-04-06T06:41:36.129Z,36.30
2019-04-06T06:44:03.936Z,30.83
2019-04-06T06:46:37.850Z,30.53
2019-04-06T06:49:05.250Z,31.50
2019-04-06T06:51:34.051Z,30.30
2019-04-06T06:54:01.645Z,34.70
2019-04-06T06:56:30.009Z,36.27
2019-04-06T06:58:57.384Z,39.57
2019-04-06T07:01:24.817Z,34.07
2019-04-06T07:03:52.218Z,34.20
2019-04-06T07:06:19.649Z,30.83
2019-04-06T07:08:47.014Z,36.87
2019-04-06T07:11:14.493Z,33.80
2019-04-06T07:14:01.898Z,36.37
2019-04-06T07:16:33.483Z,37.50
2019-04-06T07:19:01.968Z,33.13
2019-04-06T07:21:29.446Z,38.00
2019-04-06T07:23:56.908Z,42.37
2019-04-06T07:26:24.179Z,40.67
2019-04-06T07:28:51.693Z,37.00
2019-04-06T07:31:19.058Z,43.40
2019-04-06T07:33:46.515Z,41.20
2019-04-06T07:36:14.222Z,39.87
2019-04-06T07:38:41.828Z,43.23
2019-04-06T07:41:09.395Z,45.13
2019-04-06T07:43:36.898Z,47.47
2019-04-06T07:46:05.531Z,47.83
2019-04-06T07:48:33.215Z,43.63
2019-04-06T07:51:00.709Z,46.27
2019-04-06T07:53:29.143Z,42.23
2019-04-06T07:55:56.541Z,48.77
2019-04-06T07:58:23.995Z,46.73
2019-04-06T08:00:51.531Z,45.57
2019-04-06T08:03:19.105Z,45.43
2019-04-06T08:05:46.718Z,45.20
2019-04-06T08:08:14.122Z,44.40
2019-04-06T08:10:41.679Z,45.93
2019-04-06T08:13:09.109Z,43.43
2019-04-06T08:15:36.553Z,44.20
2019-04-06T08:18:04.566Z,41.57
2019-04-06T08:20:32.049Z,42.13
2019-04-06T08:22:59.548Z,42.77
2019-04-06T08:25:26.967Z,44.97
2019-04-06T08:27:54.528Z,46.13
2019-04-06T08:30:22.318Z,43.33
2019-04-06T08:32:49.792Z,39.40
2019-04-06T08:35:25.214Z,41.70
2019-04-06T08:37:46.452Z,42.87
2019-04-06T08:40:14.306Z,39.67
2019-04-06T08:42:42.000Z,42.23
2019-04-06T08:45:09.784Z,40.73
2019-04-06T08:47:37.285Z,39.53
2019-04-06T08:50:05.415Z,42.47
2019-04-06T08:52:33.051Z,43.93
2019-04-06T08:55:00.556Z,41.17
2019-04-06T08:57:27.834Z,39.60
2019-04-06T08:59:55.105Z,40.50
2019-04-06T09:02:22.618Z,44.77
2019-04-06T09:04:50.009Z,35.90
2019-04-06T09:07:17.262Z,40.03
2019-04-06T09:09:44.650Z,37.97
2019-04-06T09:12:12.372Z,38.40
2019-04-06T09:14:39.782Z,35.57
2019-04-06T09:17:07.373Z,40.77
2019-04-06T09:19:34.907Z,41.90
2019-04-06T09:22:02.525Z,37.80
2019-04-06T09:24:30.106Z,38.97
2019-04-06T09:26:57.530Z,44.93
2019-04-06T09:29:25.096Z,46.03
2019-04-06T09:31:52.683Z,43.00
2019-04-06T09:34:20.468Z,41.23
2019-04-06T09:36:47.896Z,44.80
2019-04-06T09:39:15.262Z,46.17
2019-04-06T09:41:42.680Z,43.53
2019-04-06T09:44:17.342Z,38.97
2019-04-06T09:47:04.314Z,45.93
2019-04-06T09:50:03.380Z,40.57
2019-04-06T09:52:48.500Z,40.63
2019-04-06T09:55:24.370Z,40.83
2019-04-06T09:58:26.444Z,44.13
2019-04-06T10:01:15.984Z,42.90
2019-04-06T10:03:51.863Z,38.93
2019-04-06T10:06:37.562Z,43.90
2019-04-06T10:09:24.851Z,45.50
2019-04-06T10:12:17.826Z,41.73
2019-04-06T10:15:05.122Z,43.80
2019-04-06T10:18:01.340Z,45.77
2019-04-06T10:20:51.073Z,46.10
2019-04-06T10:23:38.123Z,43.73
2019-04-06T10:26:23.326Z,50.23
2019-04-06T10:29:08.445Z,49.00
2019-04-06T10:32:01.059Z,48.73
2019-04-06T10:34:38.766Z,47.27
2019-04-06T10:37:25.743Z,48.47
2019-04-06T10:40:13.154Z,49.03
2019-04-06T10:43:02.123Z,52.27
2019-04-06T10:45:49.281Z,47.03
2019-04-06T10:48:30.856Z,42.13
2019-04-06T10:51:11.994Z,45.27
2019-04-06T10:53:46.757Z,42.77
2019-04-06T10:56:25.601Z,41.67
2019-04-06T10:59:10.953Z,37.77
2019-04-06T11:02:12.621Z,44.47
2019-04-06T11:04:50.508Z,40.60
2019-04-06T11:07:44.326Z,39.10
2019-04-06T11:10:32.687Z,38.60
2019-04-06T11:13:35.192Z,34.33
2019-04-06T11:16:21.716Z,36.93
2019-04-06T11:19:07.962Z,34.03
2019-04-06T11:21:53.084Z,39.53
2019-04-06T11:24:37.082Z,38.03
2019-04-06T11:27:36.578Z,35.93
2019-04-06T11:30:31.969Z,38.93
2019-04-06T11:33:12.190Z,35.77
2019-04-06T11:35:59.686Z,33.97
2019-04-06T11:38:49.731Z,34.93
2019-04-06T11:41:25.088Z,33.40
2019-04-06T11:44:12.029Z,32.67
2019-04-06T11:46:55.433Z,34.07
2019-04-06T11:49:40.872Z,34.73
2019-04-06T11:52:32.092Z,39.60
2019-04-06T11:55:17.314Z,32.73
2019-04-06T11:58:07.524Z,31.90
2019-04-06T12:01:12.932Z,31.57
2019-04-06T12:04:00.687Z,32.37
2019-04-06T12:06:53.735Z,28.17
2019-04-06T12:09:44.944Z,29.90
2019-04-06T12:12:43.402Z,27.87
2019-04-06T12:15:30.665Z,32.97
2019-04-06T12:18:19.476Z,26.80
2019-04-06T12:21:03.101Z,25.80
2019-04-06T12:23:53.182Z,28.73
2019-04-06T12:26:42.826Z,27.70
2019-04-06T12:29:29.822Z,26.77
2019-04-06T12:32:23.912Z,23.73
2019-04-06T12:35:18.250Z,23.37
2019-04-06T12:38:05.272Z,21.40
2019-04-06T12:40:51.570Z,22.77
2019-04-06T12:43:40.769Z,20.30
2019-04-06T12:46:25.795Z,20.40
2019-04-06T12:49:02.759Z,20.67
2019-04-06T12:52:01.834Z,21.40
2019-04-06T12:54:39.777Z,22.07
2019-04-06T12:57:29.526Z,19.33
2019-04-06T13:00:25.144Z,20.83
2019-04-06T13:03:10.207Z,21.20
2019-04-06T13:05:49.427Z,21.07
2019-04-06T13:08:37.624Z,20.83
2019-04-06T13:11:15.195Z,20.93
2019-04-06T13:13:51.823Z,23.27
2019-04-06T13:16:51.912Z,25.67
2019-04-06T13:19:36.676Z,18.23
2019-04-06T13:22:26.368Z,22.03
2019-04-06T13:25:06.805Z,20.33
2019-04-06T13:27:53.118Z,21.10
2019-04-06T13:31:02.147Z,20.30
2019-04-06T13:33:43.762Z,21.53
2019-04-06T13:36:26.228Z,21.80
2019-04-06T13:39:11.051Z,24.57
2019-04-06T13:41:54.782Z,20.13
2019-04-06T13:44:32.601Z,23.40
2019-04-06T13:47:14.894Z,23.30
2019-04-06T13:50:07.602Z,26.03
2019-04-06T13:52:52.898Z,24.20
2019-04-06T13:55:38.043Z,22.23
2019-04-06T13:58:10.614Z,21.03
2019-04-06T14:00:48.124Z,23.17
2019-04-06T14:03:35.136Z,20.13
2019-04-06T14:06:14.705Z,24.73
2019-04-06T14:08:57.752Z,23.97
2019-04-06T14:11:32.956Z,23.00
2019-04-06T14:14:29.145Z,24.87
2019-04-06T14:17:10.803Z,22.27
2019-04-06T14:19:55.809Z,25.17
2019-04-06T14:22:48.199Z,22.63
2019-04-06T14:25:25.907Z,22.33
2019-04-06T14:28:09.887Z,21.70
2019-04-06T14:31:05.460Z,21.73
2019-04-06T14:33:55.588Z,21.00
2019-04-06T14:36:35.280Z,23.33
2019-04-06T14:39:33.139Z,18.93
2019-04-06T14:42:12.750Z,24.37
2019-04-06T14:45:01.398Z,21.23
2019-04-06T14:47:36.574Z,19.27
2019-04-06T14:50:29.512Z,22.93
2019-04-06T14:53:20.516Z,18.90
2019-04-06T14:56:05.898Z,22.07
2019-04-06T14:58:51.510Z,19.77
2019-04-06T15:01:40.466Z,20.67
2019-04-06T15:04:13.548Z,19.63
2019-04-06T15:07:12.883Z,17.63
2019-04-06T15:10:00.837Z,18.17
2019-04-06T15:12:47.184Z,21.67
2019-04-06T15:15:34.184Z,19.37
2019-04-06T15:18:36.255Z,21.33
2019-04-06T15:21:18.901Z,17.13
2019-04-06T15:24:10.758Z,20.33
2019-04-06T15:26:57.720Z,18.63
2019-04-06T15:29:47.674Z,24.07
2019-04-06T15:32:50.232Z,17.67
2019-04-06T15:35:36.228Z,20.80
2019-04-06T15:38:15.548Z,24.10
2019-04-06T15:41:01.252Z,22.47
2019-04-06T15:43:46.748Z,21.83
2019-04-06T15:46:36.965Z,20.30
2019-04-06T15:49:25.182Z,21.50
2019-04-06T15:52:24.042Z,20.83
2019-04-06T15:55:13.760Z,20.60
2019-04-06T15:57:48.161Z,26.23
2019-04-06T16:00:33.890Z,21.67
2019-04-06T16:03:20.879Z,24.70
2019-04-06T16:06:07.821Z,20.80
2019-04-06T16:09:03.915Z,19.60
2019-04-06T16:11:49.469Z,22.63
2019-04-06T16:14:33.191Z,18.63
2019-04-06T16:17:20.236Z,18.77
2019-04-06T16:20:03.784Z,19.60
2019-04-06T16:22:49.163Z,18.37
2019-04-06T16:25:23.520Z,17.90
2019-04-06T16:28:16.348Z,20.57
2019-04-06T16:30:55.346Z,21.97
2019-04-06T16:33:41.378Z,18.23
2019-04-06T16:36:28.470Z,17.00
2019-04-06T16:39:22.221Z,18.73
2019-04-06T16:42:09.251Z,20.20
2019-04-06T16:45:02.069Z,25.90
2019-04-06T16:47:47.903Z,19.23
2019-04-06T16:50:49.768Z,18.50
2019-04-06T16:53:33.744Z,35.17
2019-04-06T16:56:12.584Z,20.37
2019-04-06T16:58:54.477Z,20.50
2019-04-06T17:01:30.157Z,15.53
2019-04-06T17:04:18.761Z,17.60
2019-04-06T17:07:06.233Z,16.70
2019-04-06T17:10:02.140Z,16.27
2019-04-06T17:12:36.766Z,15.80
2019-04-06T17:15:29.749Z,17.60
2019-04-06T17:18:14.828Z,17.23
2019-04-06T17:21:07.128Z,20.70
2019-04-06T17:23:40.024Z,19.73
2019-04-06T17:26:15.521Z,22.03
2019-04-06T17:29:15.047Z,20.90
2019-04-06T17:31:54.246Z,17.10
2019-04-06T17:34:53.831Z,20.00
2019-04-06T17:37:35.763Z,20.40
2019-04-06T17:40:26.797Z,23.83
2019-04-06T17:43:12.072Z,17.20
2019-04-06T17:46:14.040Z,23.33
2019-04-06T17:49:03.789Z,22.20
2019-04-06T17:51:55.424Z,23.17
2019-04-06T17:55:04.876Z,28.13
2019-04-06T18:00:59.433Z,32.30
2019-04-06T18:03:50.627Z,29.40
2019-04-06T18:06:37.558Z,25.27
2019-04-06T18:09:25.935Z,28.90
2019-04-06T18:12:11.620Z,25.53
2019-04-06T18:14:39.429Z,19.20
2019-04-06T18:17:07.627Z,19.70
2019-04-06T18:19:35.057Z,26.73
2019-04-06T18:22:02.905Z,20.37
2019-04-06T18:24:30.644Z,21.87
2019-04-06T18:26:59.074Z,19.53
2019-04-06T18:29:27.296Z,24.70
2019-04-06T18:32:04.800Z,22.93
2019-04-06T18:34:32.221Z,19.90
2019-04-06T18:37:37.054Z,23.17
2019-04-06T18:40:24.823Z,18.87
2019-04-06T18:42:52.216Z,23.30
2019-04-06T18:45:19.455Z,24.53
2019-04-06T18:47:46.817Z,21.87
2019-04-06T18:50:14.772Z,19.97
2019-04-06T18:52:42.142Z,22.80
2019-04-06T18:55:09.919Z,22.47
2019-04-06T18:57:37.269Z,21.00
2019-04-06T19:00:07.543Z,23.20
2019-04-06T19:02:36.413Z,21.60
2019-04-06T19:05:04.576Z,22.50
2019-04-06T19:07:31.955Z,22.53
2019-04-06T19:09:59.565Z,19.93
2019-04-06T19:12:26.913Z,20.37
2019-04-06T19:14:54.264Z,19.83
2019-04-06T19:17:21.509Z,21.80
2019-04-06T19:19:48.891Z,22.23
2019-04-06T19:22:16.167Z,18.43
2019-04-06T19:24:44.394Z,26.87
2019-04-06T19:27:11.894Z,26.30
2019-04-06T19:29:39.522Z,21.23
2019-04-06T19:32:06.871Z,19.87
2019-04-06T19:34:34.224Z,21.43
2019-04-06T19:37:01.779Z,20.53
2019-04-06T19:39:29.121Z,22.80
2019-04-06T19:41:56.609Z,20.67
2019-04-06T19:44:23.812Z,19.40
2019-04-06T19:46:51.336Z,21.07
2019-04-06T19:49:18.739Z,24.67
2019-04-06T19:51:45.856Z,23.13
2019-04-06T19:54:14.053Z,26.17
2019-04-06T19:56:41.530Z,24.80
2019-04-06T19:59:08.934Z,23.57
2019-04-06T20:01:36.400Z,23.63
2019-04-06T20:04:03.934Z,23.33
2019-04-06T20:06:31.763Z,24.63
2019-04-06T20:08:58.784Z,23.03
2019-04-06T20:11:27.291Z,25.20
2019-04-06T20:13:54.974Z,26.30
2019-04-06T20:16:22.891Z,27.50
2019-04-06T20:18:50.088Z,22.53
2019-04-06T20:21:17.579Z,29.00
2019-04-06T20:23:44.928Z,32.73
2019-04-06T20:26:12.795Z,29.77
2019-04-06T20:28:40.067Z,26.23
2019-04-06T20:31:07.382Z,30.10
2019-04-06T20:33:46.398Z,23.00
2019-04-06T20:36:03.997Z,25.53
2019-04-06T20:38:31.276Z,20.90
2019-04-06T20:40:58.629Z,21.43
2019-04-06T20:43:26.344Z,20.37
2019-04-06T20:45:54.349Z,21.93
2019-04-06T20:48:21.617Z,24.60
2019-04-06T20:50:49.080Z,33.07
2019-04-06T20:53:16.661Z,23.00
2019-04-06T20:55:44.022Z,24.80
2019-04-06T20:58:12.127Z,25.57
2019-04-06T21:00:39.420Z,27.37
2019-04-06T21:03:06.688Z,23.07
2019-04-06T21:05:33.892Z,26.33
2019-04-06T21:08:01.398Z,23.43
2019-04-06T21:10:28.624Z,22.83
2019-04-06T21:12:55.989Z,31.00
2019-04-06T21:15:23.790Z,35.53
2019-04-06T21:17:51.647Z,22.53
2019-04-06T21:20:19.086Z,23.40
2019-04-06T21:22:46.339Z,20.97
2019-04-06T21:25:13.668Z,23.63
2019-04-06T21:27:43.185Z,24.40
2019-04-06T21:30:10.786Z,21.83
2019-04-06T21:32:38.350Z,32.77
2019-04-06T21:35:05.707Z,23.97
2019-04-06T21:37:33.469Z,22.73
2019-04-06T21:40:01.069Z,24.87
2019-04-06T21:42:28.642Z,23.57
2019-04-06T21:44:55.956Z,21.50
2019-04-06T21:47:23.194Z,24.67
2019-04-06T21:49:50.426Z,24.87
2019-04-06T21:52:18.079Z,21.30
2019-04-06T21:54:45.578Z,21.23
2019-04-06T21:57:13.177Z,24.87
2019-04-06T21:59:40.532Z,27.03
2019-04-06T22:02:08.064Z,25.03
2019-04-06T22:04:35.504Z,25.70
2019-04-06T22:07:03.167Z,23.50
2019-04-06T22:09:30.513Z,71.03
2019-04-06T22:11:58.392Z,45.67
2019-04-06T22:14:26.235Z,44.40
2019-04-06T22:16:53.632Z,38.57
2019-04-06T22:19:21.411Z,33.53
2019-04-06T22:21:49.397Z,31.87
2019-04-06T22:24:17.112Z,37.73
2019-04-06T22:26:44.523Z,43.30
2019-04-06T22:29:11.926Z,35.60
2019-04-06T22:31:40.585Z,26.40
2019-04-06T22:34:08.091Z,32.03
2019-04-06T22:36:35.615Z,30.67
2019-04-06T22:39:05.433Z,26.50
2019-04-06T22:41:32.921Z,24.60
2019-04-06T22:44:00.716Z,30.80
2019-04-06T22:46:28.462Z,27.90
2019-04-06T22:48:56.229Z,27.23
2019-04-06T22:51:24.638Z,28.57
2019-04-06T22:53:52.108Z,29.00
2019-04-06T22:56:19.372Z,35.93
2019-04-06T22:58:46.632Z,28.37
2019-04-06T23:01:15.173Z,25.77
2019-04-06T23:04:02.034Z,27.63
2019-04-06T23:06:34.630Z,27.90
2019-04-06T23:09:01.830Z,26.20
2019-04-06T23:11:29.133Z,28.47
2019-04-06T23:13:56.517Z,27.40
2019-04-06T23:16:23.842Z,25.87
2019-04-06T23:18:51.176Z,25.53
2019-04-06T23:21:18.392Z,28.13
2019-04-06T23:23:46.456Z,28.47
2019-04-06T23:26:13.818Z,25.73
2019-04-06T23:28:41.068Z,26.37
2019-04-06T23:31:08.315Z,25.87
2019-04-06T23:33:35.704Z,24.10
2019-04-06T23:36:03.369Z,29.97
2019-04-06T23:38:30.854Z,30.50
2019-04-06T23:40:58.061Z,26.73
2019-04-06T23:43:25.579Z,26.47
2019-04-06T23:45:52.914Z,25.83
2019-04-06T23:48:20.513Z,24.87
2019-04-06T23:50:48.357Z,25.77
2019-04-06T23:53:16.027Z,24.30
2019-04-06T23:55:43.426Z,27.77
2019-04-06T23:58:10.890Z,26.40
